Main page
METAR-TAF:

METAR-TAF

Airports :

Koksijde Air Base

Koksijde, Belgium

latitude: 51-05N, longitude: 002-39E, elevation: 4 m

Current weather observation

The report was made 39 minutes ago, at 08:25 UTC
Wind 11 kt from the East/Northeast
Temperature 2°C
Humidity 80%
Pressure 1028 hPa
Visibility: 6000 m

METAR: EBFN 180825Z AUTO 06011KT 6000 NCD 02/M01 Q1028 WHT

Time: 10:04 (09:04 UTC)

Forecast

The report was made 3 hours and 23 minutes ago, at 05:41 UTC
Forecast valid from 18 at 07 UTC to 18 at 16 UTC
Wind 10 kt from the East/Northeast
Visibility: 5000 m
Scattered clouds at a height of 25000 ft
mist
Temporary
from 18 at 07 UTC to 18 at 10 UTC
Visibility: 3000 m
mist
Becoming
from 18 at 09 UTC to 18 at 11 UTC
Wind 12 kt from the East/Northeast with gusts up to 22 kt
Visibility 10 km or more
Scattered clouds at a height of 25000 ft

TAF: EBFN 180541Z 1807/1816 07010KT 5000 BR SCT250 TEMPO 1807/1810 3000 BR BECMG 1809/1811 07012G22KT 9999 SCT250

Weather observations and forecasts of more than 4000 airports (METAR and TAF reports).

The available stations are represented by yellow and red dots on the map.

Hover mouse over dot to see the name of the station.

Then click to see weather observations and forecasts.

To change the map : click on the green buttons with a black cross to zoom in, on the green button with a dash to zoom out, or on the green arrows for adjacent maps.


METAR-TAF: